Flight Track Log - Related Links

Times and Time Zones

All times are in EDT time to prevent confusion due to time zone crossing. See the ASQ2517 flight status page for this flight to view local times or setup timezone preferences in your user account.


Time Position Orientation Groundspeed Altitude Reporting Facility
EDT Latitude Longitude Course Direction KTS MPH feet Rate Location/Type
Mon 10:49:29 PM 32.8833 -97.0500 180° South 156 180 1,400  Level Dallas / Fort Worth TRACON
Mon 10:50:05 PM 32.8500 -97.0500 180° South 164 189 2,500 1,813 Climbing Dallas / Fort Worth TRACON
Mon 10:51:05 PM 32.8000 -97.0667 196° South 213 245 4,300 1,883 Climbing Dallas / Fort Worth TRACON
Mon 10:52:22 PM 32.7578 -97.1269 230° Southwest 263 303 6,800 2,058 Climbing Fort Worth Center
Mon 10:53:22 PM 32.7706 -97.2256 279° West 263 303 9,000 2,000 Climbing Fort Worth Center
Mon 10:54:22 PM 32.8061 -97.2972 301° West 275 316 10,800 1,900 Climbing Fort Worth Center
Mon 10:55:22 PM 32.8625 -97.3861 307° West 294 338 12,800 1,750 Climbing Fort Worth Center
Mon 10:56:22 PM 32.9106 -97.4556 310° West 307 353 14,300 1,550 Climbing Fort Worth Center
Mon 10:57:22 PM 32.9711 -97.5497 307° West 319 367 15,900 1,450 Climbing Fort Worth Center
Mon 10:58:22 PM 33.0272 -97.6364 308° West 329 379 17,200 900 Climbing Fort Worth Center
Mon 10:59:22 PM 33.0833 -97.7333 305° West 344 396 17,700 450 Climbing Fort Worth Center
Mon 11:00:22 PM 33.1247 -97.8475 293° West 360 414 18,100 500 Climbing Fort Worth Center
Mon 11:01:22 PM 33.1639 -97.9694 291° West 382 440 18,700 500 Climbing Fort Worth Center
Mon 11:02:22 PM 33.2011 -98.0911 290° West 392 451 19,100 500 Climbing Fort Worth Center
Mon 11:03:22 PM 33.2419 -98.2158 291° West 402 463 19,700 500 Climbing Fort Worth Center
Mon 11:04:22 PM 33.2828 -98.3428 291° West 407 468 20,100 450 Climbing Fort Worth Center
Mon 11:05:22 PM 33.3214 -98.4700 290° West 414 476 20,600 500 Climbing Fort Worth Center
Mon 11:06:22 PM 33.3581 -98.5872 291° West 409 471 21,100 500 Climbing Fort Worth Center
Mon 11:07:22 PM 33.3986 -98.7147 291° West 409 471 21,600 450 Climbing Fort Worth Center
Mon 11:08:22 PM 33.4492 -98.8500 294° West 409 471 22,000 200 Climbing Fort Worth Center
Mon 11:09:22 PM 33.5189 -98.9608 307° West 409 471 22,000  Level Fort Worth Center
Mon 11:10:22 PM 33.5906 -99.0767 307° West 428 493 22,000  Level Fort Worth Center
Mon 11:11:22 PM 33.6661 -99.1881 309° West 433 498 22,000  Level Fort Worth Center
Mon 11:12:22 PM 33.7333 -99.2942 307° West 438 504 22,000  Level Fort Worth Center
Mon 11:13:22 PM 33.8067 -99.4133 307° West 444 511 22,000  Level Fort Worth Center
Mon 11:14:22 PM 33.8903 -99.5353 310° West 444 511 22,000  Level Fort Worth Center
Mon 11:15:22 PM 33.9633 -99.6522 307° West 439 505 22,000  Level Fort Worth Center
Mon 11:16:22 PM 34.0342 -99.7694 306° West 439 505 22,000  Level Fort Worth Center
Mon 11:17:22 PM 34.1069 -99.8892 306° West 444 511 22,000  Level Fort Worth Center
Mon 11:18:22 PM 34.1819 -100.0019 309° West 444 511 22,000  Level Fort Worth Center
Mon 11:19:22 PM 34.2525 -100.1169 307° West 444 511 22,000  Level Fort Worth Center
Mon 11:20:22 PM 34.3250 -100.2350 307° West 444 511 22,000  Level Fort Worth Center
Mon 11:21:36 PM 34.4042 -100.3625 307° West 433 498 22,000  Level Albuquerque Center
Mon 11:22:38 PM 34.4772 -100.4789 307° West 434 499 22,000  Level Albuquerque Center
Mon 11:23:39 PM 34.5631 -100.6189 307° West 432 497 22,000 -98 Level Albuquerque Center
Mon 11:24:41 PM 34.6344 -100.7350 307° West 432 497 21,800 -1,171 Descending Albuquerque Center
Mon 11:25:42 PM 34.7058 -100.8536 306° West 434 499 19,600 -2,146 Descending Albuquerque Center
Mon 11:26:44 PM 34.7767 -100.9697 307° West 431 496 17,400 -2,129 Descending Albuquerque Center
Mon 11:27:46 PM 34.8436 -101.0783 307° West 410 472 15,200 -2,098 Descending Albuquerque Center
Mon 11:28:47 PM 34.9081 -101.1858 306° West 399 459 13,100 -1,902 Descending Albuquerque Center
Mon 11:29:49 PM 34.9675 -101.2725 310° West 343 395 11,300 -1,902 Descending Albuquerque Center
Mon 11:30:50 PM 35.0461 -101.3528 320° Northwest 316 364 9,200 -1,854 Descending Albuquerque Center
Mon 11:31:52 PM 35.1047 -101.4156 319° Northwest 297 342 7,500 -1,548 Descending Albuquerque Center
Mon 11:32:54 PM 35.1608 -101.4811 316° Northwest 286 329 6,000 -927 Descending Albuquerque Center
Mon 11:33:55 PM 35.2175 -101.5433 318° Northwest 281 323 5,600 -341 Descending Albuquerque Center
Mon 11:34:57 PM 35.2589 -101.5886 318° Northwest 230 265 5,300 -387 Descending Albuquerque Center
Mon 11:35:59 PM 35.2764 -101.6428 292° West 183 211 4,800 -537 Descending Albuquerque Center
Mon 11:37:00 PM 35.2536 -101.6717 226° Southwest 143 165 4,200 -585 Descending Albuquerque Center
Mon 11:38:02 PM 35.2286 -101.7036 226° Southwest 134 154 3,600 -581 Descending Albuquerque Center

Login

Don't have an account? Register now (free) for customized features, flight alerts, and more!